sensor_id;sensor_type;location;lat;lon;timestamp;P1;durP1;ratioP1;P2;durP2;ratioP2
42146;SDS011;27815;43.410;11.852;2024-01-15T00:00:52;14.02;;;10.15;;
42146;SDS011;27815;43.410;11.852;2024-01-15T00:04:55;13.88;;;9.95;;
42146;SDS011;27815;43.410;11.852;2024-01-15T00:08:58;15.35;;;9.25;;
42146;SDS011;27815;43.410;11.852;2024-01-15T00:13:01;15.75;;;10.95;;
42146;SDS011;27815;43.410;11.852;2024-01-15T00:17:04;16.58;;;10.57;;
42146;SDS011;27815;43.410;11.852;2024-01-15T00:21:07;15.32;;;10.15;;
42146;SDS011;27815;43.410;11.852;2024-01-15T00:25:10;15.48;;;10.15;;
42146;SDS011;27815;43.410;11.852;2024-01-15T00:29:13;18.10;;;11.73;;
42146;SDS011;27815;43.410;11.852;2024-01-15T00:33:16;18.80;;;11.95;;
42146;SDS011;27815;43.410;11.852;2024-01-15T00:37:19;20.73;;;14.18;;
42146;SDS011;27815;43.410;11.852;2024-01-15T00:41:22;24.40;;;15.05;;
42146;SDS011;27815;43.410;11.852;2024-01-15T00:45:25;20.63;;;15.68;;
42146;SDS011;27815;43.410;11.852;2024-01-15T00:49:28;29.17;;;17.83;;
42146;SDS011;27815;43.410;11.852;2024-01-15T00:53:31;20.63;;;14.63;;
42146;SDS011;27815;43.410;11.852;2024-01-15T00:57:34;22.15;;;14.95;;
42146;SDS011;27815;43.410;11.852;2024-01-15T01:01:37;18.25;;;12.00;;
42146;SDS011;27815;43.410;11.852;2024-01-15T01:05:40;14.93;;;9.68;;
42146;SDS011;27815;43.410;11.852;2024-01-15T01:09:43;21.65;;;15.05;;
42146;SDS011;27815;43.410;11.852;2024-01-15T01:13:46;21.38;;;14.23;;
42146;SDS011;27815;43.410;11.852;2024-01-15T01:17:49;20.45;;;13.35;;
42146;SDS011;27815;43.410;11.852;2024-01-15T01:21:52;25.65;;;16.77;;
42146;SDS011;27815;43.410;11.852;2024-01-15T01:25:55;23.35;;;16.70;;
42146;SDS011;27815;43.410;11.852;2024-01-15T01:29:58;25.02;;;18.17;;
42146;SDS011;27815;43.410;11.852;2024-01-15T01:34:01;24.33;;;16.58;;
42146;SDS011;27815;43.410;11.852;2024-01-15T01:38:04;26.63;;;18.38;;
42146;SDS011;27815;43.410;11.852;2024-01-15T01:42:07;24.17;;;18.13;;
42146;SDS011;27815;43.410;11.852;2024-01-15T01:46:10;27.08;;;19.42;;
42146;SDS011;27815;43.410;11.852;2024-01-15T01:50:14;28.92;;;17.30;;
42146;SDS011;27815;43.410;11.852;2024-01-15T01:54:18;26.13;;;17.35;;
42146;SDS011;27815;43.410;11.852;2024-01-15T01:58:23;24.13;;;16.80;;
42146;SDS011;27815;43.410;11.852;2024-01-15T02:02:26;26.13;;;18.38;;
42146;SDS011;27815;43.410;11.852;2024-01-15T02:06:29;32.13;;;19.73;;
42146;SDS011;27815;43.410;11.852;2024-01-15T02:10:32;30.77;;;21.63;;
42146;SDS011;27815;43.410;11.852;2024-01-15T02:14:35;28.70;;;20.52;;
42146;SDS011;27815;43.410;11.852;2024-01-15T02:18:44;24.08;;;15.55;;
42146;SDS011;27815;43.410;11.852;2024-01-15T02:22:48;29.98;;;21.52;;
42146;SDS011;27815;43.410;11.852;2024-01-15T02:26:51;31.83;;;21.85;;
42146;SDS011;27815;43.410;11.852;2024-01-15T02:30:54;36.22;;;22.60;;
42146;SDS011;27815;43.410;11.852;2024-01-15T02:34:57;28.88;;;20.20;;
42146;SDS011;27815;43.410;11.852;2024-01-15T02:39:00;30.90;;;20.77;;
42146;SDS011;27815;43.410;11.852;2024-01-15T02:43:03;33.13;;;22.02;;
42146;SDS011;27815;43.410;11.852;2024-01-15T02:47:06;33.60;;;22.35;;
42146;SDS011;27815;43.410;11.852;2024-01-15T02:51:09;32.42;;;21.77;;
42146;SDS011;27815;43.410;11.852;2024-01-15T02:55:12;34.30;;;23.88;;
42146;SDS011;27815;43.410;11.852;2024-01-15T02:59:15;33.65;;;25.67;;
42146;SDS011;27815;43.410;11.852;2024-01-15T03:03:18;34.42;;;21.50;;
42146;SDS011;27815;43.410;11.852;2024-01-15T03:07:21;33.45;;;22.58;;
42146;SDS011;27815;43.410;11.852;2024-01-15T03:11:23;29.27;;;20.30;;
42146;SDS011;27815;43.410;11.852;2024-01-15T03:15:27;22.90;;;15.52;;
42146;SDS011;27815;43.410;11.852;2024-01-15T03:19:30;26.77;;;18.42;;
42146;SDS011;27815;43.410;11.852;2024-01-15T03:23:33;20.55;;;16.00;;
42146;SDS011;27815;43.410;11.852;2024-01-15T03:27:35;23.90;;;18.20;;
42146;SDS011;27815;43.410;11.852;2024-01-15T03:31:38;24.08;;;16.55;;
42146;SDS011;27815;43.410;11.852;2024-01-15T03:35:42;21.30;;;15.00;;
42146;SDS011;27815;43.410;11.852;2024-01-15T03:39:45;21.92;;;16.27;;
42146;SDS011;27815;43.410;11.852;2024-01-15T03:43:48;27.35;;;19.05;;
42146;SDS011;27815;43.410;11.852;2024-01-15T03:47:51;25.15;;;17.98;;
42146;SDS011;27815;43.410;11.852;2024-01-15T03:51:54;25.40;;;16.38;;
42146;SDS011;27815;43.410;11.852;2024-01-15T03:55:57;24.33;;;16.95;;
42146;SDS011;27815;43.410;11.852;2024-01-15T04:00:00;20.00;;;14.35;;
42146;SDS011;27815;43.410;11.852;2024-01-15T04:04:06;16.13;;;11.77;;
42146;SDS011;27815;43.410;11.852;2024-01-15T04:08:09;17.63;;;12.80;;
42146;SDS011;27815;43.410;11.852;2024-01-15T04:12:12;20.95;;;13.88;;
42146;SDS011;27815;43.410;11.852;2024-01-15T04:16:15;18.48;;;12.93;;
42146;SDS011;27815;43.410;11.852;2024-01-15T04:20:18;18.95;;;11.18;;
42146;SDS011;27815;43.410;11.852;2024-01-15T04:24:31;17.38;;;11.80;;
42146;SDS011;27815;43.410;11.852;2024-01-15T04:28:34;14.65;;;9.60;;
42146;SDS011;27815;43.410;11.852;2024-01-15T04:32:37;18.05;;;11.98;;
42146;SDS011;27815;43.410;11.852;2024-01-15T04:36:40;20.85;;;13.82;;
42146;SDS011;27815;43.410;11.852;2024-01-15T04:40:43;19.73;;;12.77;;
42146;SDS011;27815;43.410;11.852;2024-01-15T04:44:47;20.88;;;13.15;;
42146;SDS011;27815;43.410;11.852;2024-01-15T04:48:50;18.92;;;12.27;;
42146;SDS011;27815;43.410;11.852;2024-01-15T04:52:53;19.48;;;12.88;;
42146;SDS011;27815;43.410;11.852;2024-01-15T04:56:56;16.30;;;11.77;;
42146;SDS011;27815;43.410;11.852;2024-01-15T05:00:59;17.90;;;11.75;;
42146;SDS011;27815;43.410;11.852;2024-01-15T05:05:02;17.23;;;12.95;;
42146;SDS011;27815;43.410;11.852;2024-01-15T05:09:05;17.10;;;11.25;;
42146;SDS011;27815;43.410;11.852;2024-01-15T05:13:08;15.55;;;9.77;;
42146;SDS011;27815;43.410;11.852;2024-01-15T05:17:11;13.35;;;9.35;;
42146;SDS011;27815;43.410;11.852;2024-01-15T05:21:14;12.77;;;8.70;;
42146;SDS011;27815;43.410;11.852;2024-01-15T05:25:17;15.50;;;9.02;;
42146;SDS011;27815;43.410;11.852;2024-01-15T05:29:20;14.25;;;9.68;;
42146;SDS011;27815;43.410;11.852;2024-01-15T05:33:23;9.82;;;5.10;;
42146;SDS011;27815;43.410;11.852;2024-01-15T05:37:26;13.93;;;8.48;;
42146;SDS011;27815;43.410;11.852;2024-01-15T05:41:29;13.80;;;8.95;;
42146;SDS011;27815;43.410;11.852;2024-01-15T05:45:33;20.88;;;9.77;;
42146;SDS011;27815;43.410;11.852;2024-01-15T05:49:38;18.70;;;11.77;;
42146;SDS011;27815;43.410;11.852;2024-01-15T05:53:41;21.20;;;11.52;;
42146;SDS011;27815;43.410;11.852;2024-01-15T05:57:46;18.73;;;12.38;;
42146;SDS011;27815;43.410;11.852;2024-01-15T06:01:49;18.08;;;11.23;;
42146;SDS011;27815;43.410;11.852;2024-01-15T06:05:52;19.83;;;10.25;;
42146;SDS011;27815;43.410;11.852;2024-01-15T06:09:55;16.13;;;11.73;;
42146;SDS011;27815;43.410;11.852;2024-01-15T06:13:59;22.40;;;14.75;;
42146;SDS011;27815;43.410;11.852;2024-01-15T06:18:11;26.95;;;17.30;;
42146;SDS011;27815;43.410;11.852;2024-01-15T06:22:15;25.73;;;15.32;;
42146;SDS011;27815;43.410;11.852;2024-01-15T06:26:18;20.35;;;14.07;;
42146;SDS011;27815;43.410;11.852;2024-01-15T06:30:22;25.85;;;15.65;;
42146;SDS011;27815;43.410;11.852;2024-01-15T06:34:25;25.38;;;17.35;;
42146;SDS011;27815;43.410;11.852;2024-01-15T06:38:28;28.50;;;19.08;;
42146;SDS011;27815;43.410;11.852;2024-01-15T06:42:31;29.90;;;19.23;;
42146;SDS011;27815;43.410;11.852;2024-01-15T06:46:34;28.55;;;18.25;;
42146;SDS011;27815;43.410;11.852;2024-01-15T06:50:38;30.60;;;19.35;;
42146;SDS011;27815;43.410;11.852;2024-01-15T06:54:41;29.98;;;18.98;;
42146;SDS011;27815;43.410;11.852;2024-01-15T06:58:44;29.90;;;19.02;;
42146;SDS011;27815;43.410;11.852;2024-01-15T07:02:47;27.08;;;19.35;;
42146;SDS011;27815;43.410;11.852;2024-01-15T07:06:50;24.00;;;15.77;;
42146;SDS011;27815;43.410;11.852;2024-01-15T07:10:53;20.63;;;12.18;;
42146;SDS011;27815;43.410;11.852;2024-01-15T07:14:56;21.13;;;13.07;;
42146;SDS011;27815;43.410;11.852;2024-01-15T07:18:59;14.32;;;8.43;;
42146;SDS011;27815;43.410;11.852;2024-01-15T07:23:02;10.05;;;5.80;;
42146;SDS011;27815;43.410;11.852;2024-01-15T07:27:06;22.55;;;16.20;;
42146;SDS011;27815;43.410;11.852;2024-01-15T07:31:10;39.72;;;23.58;;
42146;SDS011;27815;43.410;11.852;2024-01-15T07:35:14;35.63;;;22.70;;
42146;SDS011;27815;43.410;11.852;2024-01-15T07:39:17;35.15;;;23.17;;
42146;SDS011;27815;43.410;11.852;2024-01-15T07:43:26;40.63;;;26.50;;
42146;SDS011;27815;43.410;11.852;2024-01-15T07:47:30;33.10;;;22.27;;
42146;SDS011;27815;43.410;11.852;2024-01-15T07:51:33;34.35;;;20.95;;
42146;SDS011;27815;43.410;11.852;2024-01-15T07:55:36;38.67;;;24.48;;
42146;SDS011;27815;43.410;11.852;2024-01-15T07:59:39;34.35;;;23.27;;
42146;SDS011;27815;43.410;11.852;2024-01-15T08:03:42;41.45;;;26.58;;
42146;SDS011;27815;43.410;11.852;2024-01-15T08:07:45;35.83;;;23.23;;
42146;SDS011;27815;43.410;11.852;2024-01-15T08:11:48;43.00;;;27.63;;
42146;SDS011;27815;43.410;11.852;2024-01-15T08:15:53;35.22;;;19.65;;
42146;SDS011;27815;43.410;11.852;2024-01-15T08:19:56;34.53;;;22.77;;
42146;SDS011;27815;43.410;11.852;2024-01-15T08:24:00;38.92;;;25.48;;
42146;SDS011;27815;43.410;11.852;2024-01-15T08:28:04;42.22;;;26.63;;
42146;SDS011;27815;43.410;11.852;2024-01-15T08:32:07;40.88;;;26.75;;
42146;SDS011;27815;43.410;11.852;2024-01-15T08:36:15;35.30;;;25.33;;
42146;SDS011;27815;43.410;11.852;2024-01-15T08:40:18;37.78;;;24.90;;
42146;SDS011;27815;43.410;11.852;2024-01-15T08:44:21;37.90;;;25.25;;
42146;SDS011;27815;43.410;11.852;2024-01-15T08:48:24;34.10;;;23.67;;
42146;SDS011;27815;43.410;11.852;2024-01-15T08:52:29;36.40;;;25.05;;
42146;SDS011;27815;43.410;11.852;2024-01-15T08:56:32;49.67;;;29.33;;
42146;SDS011;27815;43.410;11.852;2024-01-15T09:00:36;35.67;;;25.65;;
42146;SDS011;27815;43.410;11.852;2024-01-15T09:04:39;35.10;;;25.40;;
42146;SDS011;27815;43.410;11.852;2024-01-15T09:08:44;41.25;;;27.48;;
42146;SDS011;27815;43.410;11.852;2024-01-15T09:12:47;36.85;;;25.42;;
42146;SDS011;27815;43.410;11.852;2024-01-15T09:16:51;54.10;;;36.22;;
42146;SDS011;27815;43.410;11.852;2024-01-15T09:20:55;46.75;;;29.05;;
42146;SDS011;27815;43.410;11.852;2024-01-15T09:24:58;42.22;;;27.80;;
42146;SDS011;27815;43.410;11.852;2024-01-15T09:29:01;44.58;;;29.70;;
42146;SDS011;27815;43.410;11.852;2024-01-15T09:33:05;45.47;;;31.90;;
42146;SDS011;27815;43.410;11.852;2024-01-15T09:37:08;52.92;;;31.30;;
42146;SDS011;27815;43.410;11.852;2024-01-15T09:41:14;54.17;;;34.23;;
42146;SDS011;27815;43.410;11.852;2024-01-15T09:45:17;55.83;;;36.65;;
42146;SDS011;27815;43.410;11.852;2024-01-15T09:49:20;53.78;;;34.47;;
42146;SDS011;27815;43.410;11.852;2024-01-15T09:53:25;51.38;;;30.60;;
42146;SDS011;27815;43.410;11.852;2024-01-15T09:57:28;49.63;;;31.02;;
42146;SDS011;27815;43.410;11.852;2024-01-15T10:01:31;39.22;;;25.90;;
42146;SDS011;27815;43.410;11.852;2024-01-15T10:05:35;33.38;;;21.33;;
42146;SDS011;27815;43.410;11.852;2024-01-15T10:09:37;23.85;;;11.52;;
42146;SDS011;27815;43.410;11.852;2024-01-15T10:13:40;13.63;;;8.02;;
42146;SDS011;27815;43.410;11.852;2024-01-15T10:17:47;14.10;;;7.88;;
42146;SDS011;27815;43.410;11.852;2024-01-15T10:21:50;16.65;;;7.20;;
42146;SDS011;27815;43.410;11.852;2024-01-15T10:25:53;12.52;;;5.20;;
42146;SDS011;27815;43.410;11.852;2024-01-15T10:29:59;11.18;;;6.40;;
42146;SDS011;27815;43.410;11.852;2024-01-15T10:34:12;42.83;;;28.65;;
42146;SDS011;27815;43.410;11.852;2024-01-15T10:38:18;40.45;;;24.27;;
42146;SDS011;27815;43.410;11.852;2024-01-15T10:42:24;38.25;;;23.23;;
42146;SDS011;27815;43.410;11.852;2024-01-15T10:46:27;37.58;;;25.52;;
42146;SDS011;27815;43.410;11.852;2024-01-15T10:50:31;59.80;;;38.72;;
42146;SDS011;27815;43.410;11.852;2024-01-15T10:54:34;57.53;;;34.22;;
42146;SDS011;27815;43.410;11.852;2024-01-15T10:58:39;50.90;;;31.73;;
42146;SDS011;27815;43.410;11.852;2024-01-15T11:02:43;49.47;;;30.58;;
42146;SDS011;27815;43.410;11.852;2024-01-15T11:06:49;46.13;;;28.73;;
42146;SDS011;27815;43.410;11.852;2024-01-15T11:10:54;36.03;;;22.23;;
42146;SDS011;27815;43.410;11.852;2024-01-15T11:15:02;30.77;;;18.85;;
42146;SDS011;27815;43.410;11.852;2024-01-15T11:19:12;26.90;;;15.57;;
42146;SDS011;27815;43.410;11.852;2024-01-15T11:23:36;37.72;;;25.48;;
42146;SDS011;27815;43.410;11.852;2024-01-15T11:27:55;47.92;;;27.55;;
42146;SDS011;27815;43.410;11.852;2024-01-15T11:31:59;47.28;;;29.23;;
42146;SDS011;27815;43.410;11.852;2024-01-15T11:36:03;45.28;;;29.45;;
42146;SDS011;27815;43.410;11.852;2024-01-15T11:40:06;45.72;;;29.08;;
42146;SDS011;27815;43.410;11.852;2024-01-15T11:44:13;39.05;;;27.92;;
42146;SDS011;27815;43.410;11.852;2024-01-15T11:48:16;44.08;;;30.38;;
42146;SDS011;27815;43.410;11.852;2024-01-15T11:52:20;34.25;;;22.95;;
42146;SDS011;27815;43.410;11.852;2024-01-15T11:56:25;34.65;;;23.13;;
42146;SDS011;27815;43.410;11.852;2024-01-15T12:00:28;22.77;;;15.45;;
42146;SDS011;27815;43.410;11.852;2024-01-15T12:04:32;62.60;;;56.95;;
42146;SDS011;27815;43.410;11.852;2024-01-15T12:08:34;18.10;;;13.55;;
42146;SDS011;27815;43.410;11.852;2024-01-15T12:12:53;14.88;;;7.00;;
42146;SDS011;27815;43.410;11.852;2024-01-15T12:17:12;12.50;;;5.55;;
42146;SDS011;27815;43.410;11.852;2024-01-15T12:21:16;10.38;;;4.90;;
42146;SDS011;27815;43.410;11.852;2024-01-15T12:25:19;8.00;;;5.38;;
42146;SDS011;27815;43.410;11.852;2024-01-15T12:29:22;13.57;;;4.63;;
42146;SDS011;27815;43.410;11.852;2024-01-15T12:33:25;10.77;;;3.60;;
42146;SDS011;27815;43.410;11.852;2024-01-15T12:37:28;9.35;;;3.30;;
42146;SDS011;27815;43.410;11.852;2024-01-15T12:41:31;14.90;;;4.47;;
42146;SDS011;27815;43.410;11.852;2024-01-15T12:45:37;11.57;;;3.60;;
42146;SDS011;27815;43.410;11.852;2024-01-15T12:49:40;11.38;;;4.38;;
42146;SDS011;27815;43.410;11.852;2024-01-15T12:53:44;10.75;;;4.18;;
42146;SDS011;27815;43.410;11.852;2024-01-15T12:57:47;10.48;;;3.83;;
42146;SDS011;27815;43.410;11.852;2024-01-15T13:01:50;15.45;;;4.93;;
42146;SDS011;27815;43.410;11.852;2024-01-15T13:05:53;13.57;;;4.50;;
42146;SDS011;27815;43.410;11.852;2024-01-15T13:09:56;12.88;;;4.60;;
42146;SDS011;27815;43.410;11.852;2024-01-15T13:13:59;9.23;;;3.75;;
42146;SDS011;27815;43.410;11.852;2024-01-15T13:18:02;8.00;;;3.65;;
42146;SDS011;27815;43.410;11.852;2024-01-15T13:22:05;10.43;;;3.97;;
42146;SDS011;27815;43.410;11.852;2024-01-15T13:26:09;9.45;;;3.63;;
42146;SDS011;27815;43.410;11.852;2024-01-15T13:30:12;6.95;;;3.00;;
42146;SDS011;27815;43.410;11.852;2024-01-15T13:34:15;9.43;;;4.40;;
42146;SDS011;27815;43.410;11.852;2024-01-15T13:38:18;12.65;;;4.82;;
42146;SDS011;27815;43.410;11.852;2024-01-15T13:42:21;11.40;;;4.43;;
42146;SDS011;27815;43.410;11.852;2024-01-15T13:46:25;10.02;;;4.07;;
42146;SDS011;27815;43.410;11.852;2024-01-15T13:50:31;12.55;;;5.03;;
42146;SDS011;27815;43.410;11.852;2024-01-15T13:54:34;10.73;;;4.32;;
42146;SDS011;27815;43.410;11.852;2024-01-15T13:58:50;9.75;;;3.80;;
42146;SDS011;27815;43.410;11.852;2024-01-15T14:02:54;12.60;;;4.10;;
42146;SDS011;27815;43.410;11.852;2024-01-15T14:06:57;12.77;;;3.90;;
42146;SDS011;27815;43.410;11.852;2024-01-15T14:11:00;11.35;;;4.15;;
42146;SDS011;27815;43.410;11.852;2024-01-15T14:15:03;12.02;;;4.60;;
42146;SDS011;27815;43.410;11.852;2024-01-15T14:19:07;7.93;;;4.47;;
42146;SDS011;27815;43.410;11.852;2024-01-15T14:23:12;16.35;;;3.92;;
42146;SDS011;27815;43.410;11.852;2024-01-15T14:27:15;8.93;;;4.40;;
42146;SDS011;27815;43.410;11.852;2024-01-15T14:31:20;11.00;;;3.78;;
42146;SDS011;27815;43.410;11.852;2024-01-15T14:35:23;11.18;;;4.72;;
42146;SDS011;27815;43.410;11.852;2024-01-15T14:39:26;9.50;;;3.20;;
42146;SDS011;27815;43.410;11.852;2024-01-15T14:43:29;7.57;;;2.83;;
42146;SDS011;27815;43.410;11.852;2024-01-15T14:47:32;7.75;;;2.90;;
42146;SDS011;27815;43.410;11.852;2024-01-15T14:51:37;9.18;;;2.95;;
42146;SDS011;27815;43.410;11.852;2024-01-15T14:55:40;9.75;;;3.03;;
42146;SDS011;27815;43.410;11.852;2024-01-15T14:59:43;11.52;;;2.95;;
42146;SDS011;27815;43.410;11.852;2024-01-15T15:03:47;12.65;;;3.10;;
42146;SDS011;27815;43.410;11.852;2024-01-15T15:07:50;15.60;;;5.75;;
42146;SDS011;27815;43.410;11.852;2024-01-15T15:11:54;17.80;;;5.63;;
42146;SDS011;27815;43.410;11.852;2024-01-15T15:15:56;21.98;;;7.85;;
42146;SDS011;27815;43.410;11.852;2024-01-15T15:20:00;7.97;;;2.65;;
42146;SDS011;27815;43.410;11.852;2024-01-15T15:24:05;7.03;;;2.75;;
42146;SDS011;27815;43.410;11.852;2024-01-15T15:28:08;7.90;;;2.80;;
42146;SDS011;27815;43.410;11.852;2024-01-15T15:32:13;12.32;;;4.32;;
42146;SDS011;27815;43.410;11.852;2024-01-15T15:36:16;6.97;;;2.97;;
42146;SDS011;27815;43.410;11.852;2024-01-15T15:40:21;7.35;;;2.92;;
42146;SDS011;27815;43.410;11.852;2024-01-15T15:44:25;10.48;;;3.85;;
42146;SDS011;27815;43.410;11.852;2024-01-15T15:48:27;8.73;;;2.95;;
42146;SDS011;27815;43.410;11.852;2024-01-15T15:52:30;9.27;;;2.97;;
42146;SDS011;27815;43.410;11.852;2024-01-15T15:56:34;9.32;;;2.97;;
42146;SDS011;27815;43.410;11.852;2024-01-15T16:04:43;9.85;;;3.47;;
42146;SDS011;27815;43.410;11.852;2024-01-15T16:08:46;7.70;;;2.90;;
42146;SDS011;27815;43.410;11.852;2024-01-15T16:12:49;7.47;;;2.60;;
42146;SDS011;27815;43.410;11.852;2024-01-15T16:16:52;9.00;;;3.38;;
42146;SDS011;27815;43.410;11.852;2024-01-15T16:21:19;11.02;;;4.20;;
42146;SDS011;27815;43.410;11.852;2024-01-15T16:25:42;12.52;;;4.55;;
42146;SDS011;27815;43.410;11.852;2024-01-15T16:29:45;18.35;;;4.22;;
42146;SDS011;27815;43.410;11.852;2024-01-15T16:33:48;7.88;;;2.72;;
42146;SDS011;27815;43.410;11.852;2024-01-15T16:37:59;9.02;;;2.83;;
42146;SDS011;27815;43.410;11.852;2024-01-15T16:42:04;7.95;;;3.30;;
42146;SDS011;27815;43.410;11.852;2024-01-15T16:46:08;10.48;;;3.83;;
42146;SDS011;27815;43.410;11.852;2024-01-15T16:50:11;8.15;;;2.95;;
42146;SDS011;27815;43.410;11.852;2024-01-15T16:54:14;7.30;;;2.92;;
42146;SDS011;27815;43.410;11.852;2024-01-15T16:58:17;9.32;;;3.15;;
42146;SDS011;27815;43.410;11.852;2024-01-15T17:02:20;6.35;;;2.45;;
42146;SDS011;27815;43.410;11.852;2024-01-15T17:06:23;6.63;;;2.42;;
42146;SDS011;27815;43.410;11.852;2024-01-15T17:10:26;9.32;;;3.38;;
42146;SDS011;27815;43.410;11.852;2024-01-15T17:14:30;10.75;;;2.78;;
42146;SDS011;27815;43.410;11.852;2024-01-15T17:18:33;12.15;;;5.97;;
42146;SDS011;27815;43.410;11.852;2024-01-15T17:22:36;10.30;;;3.50;;
42146;SDS011;27815;43.410;11.852;2024-01-15T17:26:39;11.02;;;4.15;;
42146;SDS011;27815;43.410;11.852;2024-01-15T17:30:42;10.40;;;4.68;;
42146;SDS011;27815;43.410;11.852;2024-01-15T17:34:48;12.77;;;4.10;;
42146;SDS011;27815;43.410;11.852;2024-01-15T17:38:51;9.95;;;3.50;;
42146;SDS011;27815;43.410;11.852;2024-01-15T17:42:54;9.63;;;2.70;;
42146;SDS011;27815;43.410;11.852;2024-01-15T17:46:57;6.65;;;2.63;;
42146;SDS011;27815;43.410;11.852;2024-01-15T17:51:02;10.57;;;4.93;;
42146;SDS011;27815;43.410;11.852;2024-01-15T17:55:06;8.45;;;3.45;;
42146;SDS011;27815;43.410;11.852;2024-01-15T17:59:09;11.88;;;4.18;;
42146;SDS011;27815;43.410;11.852;2024-01-15T18:03:13;9.65;;;4.38;;
42146;SDS011;27815;43.410;11.852;2024-01-15T18:07:17;10.18;;;3.65;;
42146;SDS011;27815;43.410;11.852;2024-01-15T18:11:25;14.60;;;3.30;;
42146;SDS011;27815;43.410;11.852;2024-01-15T18:15:28;10.32;;;3.30;;
42146;SDS011;27815;43.410;11.852;2024-01-15T18:19:31;12.63;;;3.45;;
42146;SDS011;27815;43.410;11.852;2024-01-15T18:23:34;11.70;;;3.40;;
42146;SDS011;27815;43.410;11.852;2024-01-15T18:27:37;10.30;;;3.88;;
42146;SDS011;27815;43.410;11.852;2024-01-15T18:31:40;10.57;;;4.20;;
42146;SDS011;27815;43.410;11.852;2024-01-15T18:35:44;10.27;;;4.03;;
42146;SDS011;27815;43.410;11.852;2024-01-15T18:39:47;10.32;;;3.60;;
42146;SDS011;27815;43.410;11.852;2024-01-15T18:43:52;11.23;;;4.80;;
42146;SDS011;27815;43.410;11.852;2024-01-15T18:47:59;10.63;;;4.18;;
42146;SDS011;27815;43.410;11.852;2024-01-15T18:52:05;12.32;;;4.25;;
42146;SDS011;27815;43.410;11.852;2024-01-15T18:56:08;9.20;;;4.03;;
42146;SDS011;27815;43.410;11.852;2024-01-15T19:00:11;8.18;;;3.10;;
42146;SDS011;27815;43.410;11.852;2024-01-15T19:04:15;7.57;;;2.95;;
42146;SDS011;27815;43.410;11.852;2024-01-15T19:08:18;7.18;;;3.10;;
42146;SDS011;27815;43.410;11.852;2024-01-15T19:12:21;9.52;;;2.90;;
42146;SDS011;27815;43.410;11.852;2024-01-15T19:16:24;5.97;;;2.78;;
42146;SDS011;27815;43.410;11.852;2024-01-15T19:20:27;5.70;;;2.20;;
42146;SDS011;27815;43.410;11.852;2024-01-15T19:24:30;9.10;;;2.40;;
42146;SDS011;27815;43.410;11.852;2024-01-15T19:28:33;11.18;;;4.30;;
42146;SDS011;27815;43.410;11.852;2024-01-15T19:32:36;9.10;;;2.60;;
42146;SDS011;27815;43.410;11.852;2024-01-15T19:36:39;7.60;;;2.45;;
42146;SDS011;27815;43.410;11.852;2024-01-15T19:40:47;10.70;;;3.00;;
42146;SDS011;27815;43.410;11.852;2024-01-15T19:44:56;8.70;;;1.90;;
42146;SDS011;27815;43.410;11.852;2024-01-15T19:49:00;7.57;;;2.47;;
42146;SDS011;27815;43.410;11.852;2024-01-15T19:53:03;7.65;;;2.28;;
42146;SDS011;27815;43.410;11.852;2024-01-15T19:57:08;6.97;;;1.92;;
42146;SDS011;27815;43.410;11.852;2024-01-15T20:01:11;7.38;;;1.95;;
42146;SDS011;27815;43.410;11.852;2024-01-15T20:05:14;4.85;;;2.10;;
42146;SDS011;27815;43.410;11.852;2024-01-15T20:09:18;7.38;;;2.33;;
42146;SDS011;27815;43.410;11.852;2024-01-15T20:13:22;6.22;;;2.58;;
42146;SDS011;27815;43.410;11.852;2024-01-15T20:17:25;8.57;;;2.78;;
42146;SDS011;27815;43.410;11.852;2024-01-15T20:21:28;7.03;;;2.53;;
42146;SDS011;27815;43.410;11.852;2024-01-15T20:25:30;7.47;;;2.35;;
42146;SDS011;27815;43.410;11.852;2024-01-15T20:29:34;8.48;;;2.75;;
42146;SDS011;27815;43.410;11.852;2024-01-15T20:33:38;7.93;;;2.35;;
42146;SDS011;27815;43.410;11.852;2024-01-15T20:37:41;8.95;;;2.70;;
42146;SDS011;27815;43.410;11.852;2024-01-15T20:41:44;5.80;;;2.20;;
42146;SDS011;27815;43.410;11.852;2024-01-15T20:45:47;6.90;;;2.42;;
42146;SDS011;27815;43.410;11.852;2024-01-15T20:49:54;6.45;;;2.22;;
42146;SDS011;27815;43.410;11.852;2024-01-15T20:54:01;7.63;;;2.47;;
42146;SDS011;27815;43.410;11.852;2024-01-15T20:58:06;7.22;;;2.00;;
42146;SDS011;27815;43.410;11.852;2024-01-15T21:02:10;10.70;;;2.40;;
42146;SDS011;27815;43.410;11.852;2024-01-15T21:06:13;8.23;;;2.70;;
42146;SDS011;27815;43.410;11.852;2024-01-15T21:10:16;11.88;;;3.40;;
42146;SDS011;27815;43.410;11.852;2024-01-15T21:14:20;11.10;;;2.30;;
42146;SDS011;27815;43.410;11.852;2024-01-15T21:18:23;8.23;;;2.80;;
42146;SDS011;27815;43.410;11.852;2024-01-15T21:22:26;10.40;;;2.47;;
42146;SDS011;27815;43.410;11.852;2024-01-15T21:26:31;10.63;;;2.70;;
42146;SDS011;27815;43.410;11.852;2024-01-15T21:30:34;9.13;;;3.00;;
42146;SDS011;27815;43.410;11.852;2024-01-15T21:34:38;5.97;;;2.30;;
42146;SDS011;27815;43.410;11.852;2024-01-15T21:38:41;7.88;;;3.08;;
42146;SDS011;27815;43.410;11.852;2024-01-15T21:42:44;5.47;;;1.92;;
42146;SDS011;27815;43.410;11.852;2024-01-15T21:46:46;12.50;;;2.40;;
42146;SDS011;27815;43.410;11.852;2024-01-15T21:50:49;8.15;;;2.00;;
42146;SDS011;27815;43.410;11.852;2024-01-15T21:54:53;10.40;;;2.65;;
42146;SDS011;27815;43.410;11.852;2024-01-15T21:58:56;7.65;;;2.50;;
42146;SDS011;27815;43.410;11.852;2024-01-15T22:03:01;12.60;;;2.75;;
42146;SDS011;27815;43.410;11.852;2024-01-15T22:07:04;6.15;;;2.35;;
42146;SDS011;27815;43.410;11.852;2024-01-15T22:11:07;11.38;;;2.53;;
42146;SDS011;27815;43.410;11.852;2024-01-15T22:15:11;6.07;;;2.80;;
42146;SDS011;27815;43.410;11.852;2024-01-15T22:19:15;9.93;;;2.72;;
42146;SDS011;27815;43.410;11.852;2024-01-15T22:23:18;8.55;;;2.50;;
42146;SDS011;27815;43.410;11.852;2024-01-15T22:27:21;9.52;;;2.50;;
42146;SDS011;27815;43.410;11.852;2024-01-15T22:31:25;10.75;;;3.15;;
42146;SDS011;27815;43.410;11.852;2024-01-15T22:35:28;6.22;;;2.17;;
42146;SDS011;27815;43.410;11.852;2024-01-15T22:39:30;8.20;;;2.60;;
42146;SDS011;27815;43.410;11.852;2024-01-15T22:43:33;15.05;;;2.67;;
42146;SDS011;27815;43.410;11.852;2024-01-15T22:47:36;10.27;;;2.90;;
42146;SDS011;27815;43.410;11.852;2024-01-15T22:51:39;7.60;;;2.35;;
42146;SDS011;27815;43.410;11.852;2024-01-15T22:55:42;10.65;;;2.33;;
42146;SDS011;27815;43.410;11.852;2024-01-15T22:59:45;8.18;;;2.83;;
42146;SDS011;27815;43.410;11.852;2024-01-15T23:03:49;11.45;;;2.67;;
42146;SDS011;27815;43.410;11.852;2024-01-15T23:07:52;10.23;;;2.25;;
42146;SDS011;27815;43.410;11.852;2024-01-15T23:11:55;10.13;;;2.20;;
42146;SDS011;27815;43.410;11.852;2024-01-15T23:15:58;6.68;;;2.50;;
42146;SDS011;27815;43.410;11.852;2024-01-15T23:20:01;8.77;;;2.33;;
42146;SDS011;27815;43.410;11.852;2024-01-15T23:24:06;5.88;;;1.92;;
42146;SDS011;27815;43.410;11.852;2024-01-15T23:28:10;7.35;;;2.17;;
42146;SDS011;27815;43.410;11.852;2024-01-15T23:32:13;6.95;;;2.03;;
42146;SDS011;27815;43.410;11.852;2024-01-15T23:36:16;10.30;;;2.20;;
42146;SDS011;27815;43.410;11.852;2024-01-15T23:40:20;6.78;;;2.40;;
42146;SDS011;27815;43.410;11.852;2024-01-15T23:44:23;10.65;;;2.42;;